METAR AND TAF INFORMATION
METAR FOR ESGJ
ADDS - METARS form results

(0408 UTC 26 February 2020)
Data provider http://aviationweather.gov/metar/data/
 
METAR text: ESGJ 260350Z AUTO 02019KT 9000 BR OVC014/// M02/M04 Q0984
Conditions at: ESGJ (JONKOPING AIRPOR, SE) observed 0350 UTC 26 February 2020
Temperature: -2.0°C (28°F)
Dewpoint: -4.0°C (25°F) [RH = 86%]
Pressure (altimeter): 29.06 inches Hg (984.0 mb)
Winds: from the NNE (20 degrees) at 22 MPH (19 knots; 9.8 m/s)
Visibility: 6 miles ( 9 km)
Ceiling: 1400 feet AGL
Clouds: overcast cloud deck at 1400 feet AGL
Weather: BR  (mist)

METAR text: ESGJ 260320Z AUTO 03017KT 9999 OVC013/// M02/M03 Q0983
Conditions at: ESGJ (JONKOPING AIRPOR, SE) observed 0320 UTC 26 February 2020
Temperature: -2.0°C (28°F)
Dewpoint: -3.0°C (27°F) [RH = 93%]
Pressure (altimeter): 29.03 inches Hg (983.0 mb)
Winds: from the NNE (30 degrees) at 20 MPH (17 knots; 8.7 m/s)
Visibility: 6 or more miles (10+ km)
Ceiling: 1300 feet AGL
Clouds: overcast cloud deck at 1300 feet AGL
Weather: no significant weather observed at this time

Forecast for: ESGJ (JONKOPING AIRPOR, SE)
Text: TAF ESGJ 252330Z 2600/2602 03013G24KT 8000 -SN BKN008
Forecast period: 0000 to 0200 UTC 26 February 2020
Forecast type: FROM: standard forecast or significant change
Winds: from the NNE (30 degrees) at 15 MPH (13 knots; 6.7 m/s)
gusting to 28 MPH (24 knots; 12.3 m/s)
Visibility: 5 miles (8 km)
Ceiling: 800 feet AGL
Clouds: broken clouds at 800 feet AGL
Weather: -SN  (light snow)
Text: PROB40 2600/2602 3000 SN SCT008 BKN015
Forecast period: 0000 to 0200 UTC 26 February 2020
Forecast type: PROBABLE: 40 percent likelihood of the following during this time
Visibility: 1.86 miles (2.99 km)
Ceiling: 1500 feet AGL
Clouds: scattered clouds at 800 feet AGL
broken clouds at 1500 feet AGL
Weather: SN  (moderate snow)

 AIRPORT MAP

 RUNWAY INFORMATION
Runway 01 Runway length 7228 ft Runway width 148 ft
Runway elevation 733 ft Runway displaced threshold 0 ft Runway heading 18
Runway 19 Runway length 7228 ft Runway width 148 ft
Runway elevation 739 ft Runway displaced threshold 0 ft Runway heading 198
Runway 11 Runway length 1969 ft Runway width 82 ft
Runway elevation 727 ft Runway displaced threshold 0 ft Runway heading 114
Runway 29 Runway length 1969 ft Runway width 82 ft
Runway elevation 738 ft Runway displaced threshold 0 ft Runway heading 294

 AIRPORT FREQUENCIES
Type TWR Name TWR Frequency 118.25 MHZ

 AIRPORT NEAR NAVIGATION AIDS
Type VOR-DME Name Jonkoping Frequency 115800 KHZ



Powered by Virtual Airlines Manager [v2.6.2]